sensor_id;sensor_type;location;lat;lon;timestamp;P1;durP1;ratioP1;P2;durP2;ratioP2
9420;SDS011;4749;51.398;5.466;2022-08-19T00:01:33;17.30;;;15.70;;
9420;SDS011;4749;51.398;5.466;2022-08-19T00:04:05;18.10;;;16.10;;
9420;SDS011;4749;51.398;5.466;2022-08-19T00:06:39;17.88;;;16.08;;
9420;SDS011;4749;51.398;5.466;2022-08-19T00:09:09;18.58;;;16.67;;
9420;SDS011;4749;51.398;5.466;2022-08-19T00:11:39;19.10;;;17.10;;
9420;SDS011;4749;51.398;5.466;2022-08-19T00:14:07;18.20;;;16.50;;
9420;SDS011;4749;51.398;5.466;2022-08-19T00:16:37;20.90;;;18.73;;
9420;SDS011;4749;51.398;5.466;2022-08-19T00:19:06;20.35;;;18.23;;
9420;SDS011;4749;51.398;5.466;2022-08-19T00:21:33;20.23;;;18.25;;
9420;SDS011;4749;51.398;5.466;2022-08-19T00:24:09;20.48;;;18.30;;
9420;SDS011;4749;51.398;5.466;2022-08-19T00:26:39;20.92;;;18.73;;
9420;SDS011;4749;51.398;5.466;2022-08-19T00:29:09;19.77;;;17.70;;
9420;SDS011;4749;51.398;5.466;2022-08-19T00:31:38;21.13;;;18.98;;
9420;SDS011;4749;51.398;5.466;2022-08-19T00:34:07;20.55;;;18.33;;
9420;SDS011;4749;51.398;5.466;2022-08-19T00:36:35;20.38;;;18.27;;
9420;SDS011;4749;51.398;5.466;2022-08-19T00:39:03;20.67;;;18.42;;
9420;SDS011;4749;51.398;5.466;2022-08-19T00:41:31;20.73;;;18.65;;
9420;SDS011;4749;51.398;5.466;2022-08-19T00:43:59;20.48;;;18.48;;
9420;SDS011;4749;51.398;5.466;2022-08-19T00:46:55;19.95;;;18.00;;
9420;SDS011;4749;51.398;5.466;2022-08-19T00:49:36;19.23;;;17.40;;
9420;SDS011;4749;51.398;5.466;2022-08-19T00:52:12;19.73;;;17.50;;
9420;SDS011;4749;51.398;5.466;2022-08-19T00:54:48;20.88;;;18.88;;
9420;SDS011;4749;51.398;5.466;2022-08-19T00:57:18;22.70;;;20.23;;
9420;SDS011;4749;51.398;5.466;2022-08-19T00:59:54;22.80;;;20.38;;
9420;SDS011;4749;51.398;5.466;2022-08-19T01:02:28;23.15;;;20.38;;
9420;SDS011;4749;51.398;5.466;2022-08-19T01:04:57;25.05;;;22.30;;
9420;SDS011;4749;51.398;5.466;2022-08-19T01:07:26;23.30;;;20.95;;
9420;SDS011;4749;51.398;5.466;2022-08-19T01:10:01;21.90;;;19.63;;
9420;SDS011;4749;51.398;5.466;2022-08-19T01:12:29;22.73;;;20.33;;
9420;SDS011;4749;51.398;5.466;2022-08-19T01:14:56;23.15;;;20.65;;
9420;SDS011;4749;51.398;5.466;2022-08-19T01:17:25;24.20;;;21.65;;
9420;SDS011;4749;51.398;5.466;2022-08-19T01:19:52;24.25;;;21.75;;
9420;SDS011;4749;51.398;5.466;2022-08-19T01:22:25;25.02;;;21.30;;
9420;SDS011;4749;51.398;5.466;2022-08-19T01:25:02;23.27;;;20.65;;
9420;SDS011;4749;51.398;5.466;2022-08-19T01:27:42;26.23;;;21.90;;
9420;SDS011;4749;51.398;5.466;2022-08-19T01:30:16;24.73;;;22.15;;
9420;SDS011;4749;51.398;5.466;2022-08-19T01:32:49;26.70;;;21.55;;
9420;SDS011;4749;51.398;5.466;2022-08-19T01:35:18;24.08;;;21.05;;
9420;SDS011;4749;51.398;5.466;2022-08-19T01:37:48;26.50;;;21.45;;
9420;SDS011;4749;51.398;5.466;2022-08-19T01:40:26;23.60;;;21.00;;
9420;SDS011;4749;51.398;5.466;2022-08-19T01:42:57;22.90;;;20.48;;
9420;SDS011;4749;51.398;5.466;2022-08-19T01:45:26;25.52;;;21.33;;
9420;SDS011;4749;51.398;5.466;2022-08-19T01:47:55;27.42;;;20.92;;
9420;SDS011;4749;51.398;5.466;2022-08-19T01:50:28;24.08;;;21.58;;
9420;SDS011;4749;51.398;5.466;2022-08-19T01:52:57;26.20;;;20.42;;
9420;SDS011;4749;51.398;5.466;2022-08-19T01:55:33;23.55;;;20.05;;
9420;SDS011;4749;51.398;5.466;2022-08-19T01:58:08;21.95;;;19.48;;
9420;SDS011;4749;51.398;5.466;2022-08-19T02:00:45;23.00;;;20.30;;
9420;SDS011;4749;51.398;5.466;2022-08-19T02:03:13;22.35;;;19.55;;
9420;SDS011;4749;51.398;5.466;2022-08-19T02:05:41;25.25;;;20.33;;
9420;SDS011;4749;51.398;5.466;2022-08-19T02:08:10;23.17;;;19.95;;
9420;SDS011;4749;51.398;5.466;2022-08-19T02:10:39;24.92;;;22.23;;
9420;SDS011;4749;51.398;5.466;2022-08-19T02:13:09;25.38;;;22.73;;
9420;SDS011;4749;51.398;5.466;2022-08-19T02:15:38;25.50;;;21.73;;
9420;SDS011;4749;51.398;5.466;2022-08-19T02:18:06;26.80;;;21.98;;
9420;SDS011;4749;51.398;5.466;2022-08-19T02:20:33;28.58;;;22.83;;
9420;SDS011;4749;51.398;5.466;2022-08-19T02:23:02;29.08;;;23.63;;
9420;SDS011;4749;51.398;5.466;2022-08-19T02:25:29;28.80;;;22.90;;
9420;SDS011;4749;51.398;5.466;2022-08-19T02:27:56;26.67;;;23.67;;
9420;SDS011;4749;51.398;5.466;2022-08-19T02:30:24;27.27;;;21.45;;
9420;SDS011;4749;51.398;5.466;2022-08-19T02:32:52;31.75;;;23.95;;
9420;SDS011;4749;51.398;5.466;2022-08-19T02:35:19;24.88;;;21.77;;
9420;SDS011;4749;51.398;5.466;2022-08-19T02:37:47;27.02;;;21.63;;
9420;SDS011;4749;51.398;5.466;2022-08-19T02:40:33;28.73;;;22.38;;
9420;SDS011;4749;51.398;5.466;2022-08-19T02:43:02;26.17;;;22.17;;
9420;SDS011;4749;51.398;5.466;2022-08-19T02:45:35;29.15;;;23.08;;
9420;SDS011;4749;51.398;5.466;2022-08-19T02:48:07;29.35;;;23.85;;
9420;SDS011;4749;51.398;5.466;2022-08-19T02:50:47;28.45;;;24.05;;
9420;SDS011;4749;51.398;5.466;2022-08-19T02:53:25;29.77;;;23.48;;
9420;SDS011;4749;51.398;5.466;2022-08-19T02:55:54;29.48;;;24.67;;
9420;SDS011;4749;51.398;5.466;2022-08-19T02:58:21;30.95;;;23.95;;
9420;SDS011;4749;51.398;5.466;2022-08-19T03:00:51;31.63;;;24.42;;
9420;SDS011;4749;51.398;5.466;2022-08-19T03:03:22;35.13;;;26.00;;
9420;SDS011;4749;51.398;5.466;2022-08-19T03:05:49;38.80;;;26.65;;
9420;SDS011;4749;51.398;5.466;2022-08-19T03:08:22;36.15;;;25.98;;
9420;SDS011;4749;51.398;5.466;2022-08-19T03:10:51;31.30;;;25.10;;
9420;SDS011;4749;51.398;5.466;2022-08-19T03:13:19;33.45;;;24.52;;
9420;SDS011;4749;51.398;5.466;2022-08-19T03:15:47;35.03;;;27.35;;
9420;SDS011;4749;51.398;5.466;2022-08-19T03:18:15;34.00;;;25.95;;
9420;SDS011;4749;51.398;5.466;2022-08-19T03:20:52;34.90;;;26.88;;
9420;SDS011;4749;51.398;5.466;2022-08-19T03:23:20;32.50;;;24.00;;
9420;SDS011;4749;51.398;5.466;2022-08-19T03:25:48;32.83;;;25.73;;
9420;SDS011;4749;51.398;5.466;2022-08-19T03:28:38;35.22;;;26.35;;
9420;SDS011;4749;51.398;5.466;2022-08-19T03:31:06;32.22;;;26.13;;
9420;SDS011;4749;51.398;5.466;2022-08-19T03:33:57;34.65;;;26.63;;
9420;SDS011;4749;51.398;5.466;2022-08-19T03:36:25;36.85;;;28.10;;
9420;SDS011;4749;51.398;5.466;2022-08-19T03:38:56;33.92;;;27.75;;
9420;SDS011;4749;51.398;5.466;2022-08-19T03:41:30;37.53;;;27.58;;
9420;SDS011;4749;51.398;5.466;2022-08-19T03:44:15;39.35;;;29.92;;
9420;SDS011;4749;51.398;5.466;2022-08-19T03:46:48;38.53;;;28.65;;
9420;SDS011;4749;51.398;5.466;2022-08-19T03:49:22;40.42;;;29.67;;
9420;SDS011;4749;51.398;5.466;2022-08-19T03:51:56;38.13;;;29.58;;
9420;SDS011;4749;51.398;5.466;2022-08-19T03:54:26;38.28;;;29.95;;
9420;SDS011;4749;51.398;5.466;2022-08-19T03:56:54;37.72;;;29.15;;
9420;SDS011;4749;51.398;5.466;2022-08-19T03:59:26;37.95;;;29.15;;
9420;SDS011;4749;51.398;5.466;2022-08-19T04:01:57;41.65;;;31.38;;
9420;SDS011;4749;51.398;5.466;2022-08-19T04:04:31;39.75;;;30.15;;
9420;SDS011;4749;51.398;5.466;2022-08-19T04:06:58;40.83;;;30.23;;
9420;SDS011;4749;51.398;5.466;2022-08-19T04:09:25;42.78;;;29.17;;
9420;SDS011;4749;51.398;5.466;2022-08-19T04:11:54;41.92;;;30.27;;
9420;SDS011;4749;51.398;5.466;2022-08-19T04:14:25;46.58;;;30.85;;
9420;SDS011;4749;51.398;5.466;2022-08-19T04:16:58;46.88;;;33.38;;
9420;SDS011;4749;51.398;5.466;2022-08-19T04:19:30;46.20;;;31.85;;
9420;SDS011;4749;51.398;5.466;2022-08-19T04:21:58;45.72;;;32.60;;
9420;SDS011;4749;51.398;5.466;2022-08-19T04:24:25;48.25;;;33.60;;
9420;SDS011;4749;51.398;5.466;2022-08-19T04:26:53;45.95;;;33.65;;
9420;SDS011;4749;51.398;5.466;2022-08-19T04:29:21;43.20;;;32.00;;
9420;SDS011;4749;51.398;5.466;2022-08-19T04:31:52;42.33;;;31.73;;
9420;SDS011;4749;51.398;5.466;2022-08-19T04:34:22;46.35;;;32.95;;
9420;SDS011;4749;51.398;5.466;2022-08-19T04:36:52;44.28;;;31.88;;
9420;SDS011;4749;51.398;5.466;2022-08-19T04:39:23;44.28;;;31.73;;
9420;SDS011;4749;51.398;5.466;2022-08-19T04:42:15;43.38;;;30.63;;
9420;SDS011;4749;51.398;5.466;2022-08-19T04:45:04;42.28;;;30.65;;
9420;SDS011;4749;51.398;5.466;2022-08-19T04:47:38;41.50;;;30.80;;
9420;SDS011;4749;51.398;5.466;2022-08-19T04:50:23;38.85;;;29.63;;
9420;SDS011;4749;51.398;5.466;2022-08-19T04:52:52;45.63;;;32.42;;
9420;SDS011;4749;51.398;5.466;2022-08-19T04:55:21;46.38;;;31.58;;
9420;SDS011;4749;51.398;5.466;2022-08-19T04:57:51;41.25;;;30.38;;
9420;SDS011;4749;51.398;5.466;2022-08-19T05:00:21;44.75;;;31.80;;
9420;SDS011;4749;51.398;5.466;2022-08-19T05:02:48;46.55;;;33.35;;
9420;SDS011;4749;51.398;5.466;2022-08-19T05:05:15;49.17;;;33.15;;
9420;SDS011;4749;51.398;5.466;2022-08-19T05:07:43;47.22;;;33.72;;
9420;SDS011;4749;51.398;5.466;2022-08-19T05:10:10;55.22;;;37.55;;
9420;SDS011;4749;51.398;5.466;2022-08-19T05:12:38;49.72;;;33.55;;
9420;SDS011;4749;51.398;5.466;2022-08-19T05:15:06;55.45;;;36.13;;
9420;SDS011;4749;51.398;5.466;2022-08-19T05:17:36;51.63;;;36.65;;
9420;SDS011;4749;51.398;5.466;2022-08-19T05:20:05;53.80;;;36.28;;
9420;SDS011;4749;51.398;5.466;2022-08-19T05:22:52;59.25;;;38.38;;
9420;SDS011;4749;51.398;5.466;2022-08-19T05:25:20;55.17;;;36.75;;
9420;SDS011;4749;51.398;5.466;2022-08-19T05:27:48;58.33;;;37.15;;
9420;SDS011;4749;51.398;5.466;2022-08-19T05:30:16;51.65;;;35.53;;
9420;SDS011;4749;51.398;5.466;2022-08-19T05:32:58;55.75;;;35.40;;
9420;SDS011;4749;51.398;5.466;2022-08-19T05:35:26;54.15;;;36.33;;
9420;SDS011;4749;51.398;5.466;2022-08-19T05:37:59;55.85;;;36.38;;
9420;SDS011;4749;51.398;5.466;2022-08-19T05:40:27;58.00;;;38.00;;
9420;SDS011;4749;51.398;5.466;2022-08-19T05:42:54;54.28;;;37.35;;
9420;SDS011;4749;51.398;5.466;2022-08-19T05:45:22;56.53;;;37.00;;
9420;SDS011;4749;51.398;5.466;2022-08-19T05:47:49;54.20;;;35.85;;
9420;SDS011;4749;51.398;5.466;2022-08-19T05:50:16;57.65;;;36.92;;
9420;SDS011;4749;51.398;5.466;2022-08-19T05:52:43;58.17;;;35.85;;
9420;SDS011;4749;51.398;5.466;2022-08-19T05:55:16;54.25;;;36.72;;
9420;SDS011;4749;51.398;5.466;2022-08-19T05:57:46;56.55;;;35.50;;
9420;SDS011;4749;51.398;5.466;2022-08-19T06:00:13;50.90;;;34.85;;
9420;SDS011;4749;51.398;5.466;2022-08-19T06:02:41;51.15;;;35.38;;
9420;SDS011;4749;51.398;5.466;2022-08-19T06:05:08;53.72;;;35.47;;
9420;SDS011;4749;51.398;5.466;2022-08-19T06:07:36;49.42;;;35.30;;
9420;SDS011;4749;51.398;5.466;2022-08-19T06:10:07;45.80;;;32.25;;
9420;SDS011;4749;51.398;5.466;2022-08-19T06:12:37;49.13;;;33.33;;
9420;SDS011;4749;51.398;5.466;2022-08-19T06:15:06;50.05;;;34.88;;
9420;SDS011;4749;51.398;5.466;2022-08-19T06:17:36;52.40;;;34.88;;
9420;SDS011;4749;51.398;5.466;2022-08-19T06:20:08;52.83;;;34.08;;
9420;SDS011;4749;51.398;5.466;2022-08-19T06:22:40;50.42;;;33.83;;
9420;SDS011;4749;51.398;5.466;2022-08-19T06:25:11;49.33;;;33.33;;
9420;SDS011;4749;51.398;5.466;2022-08-19T06:27:40;51.38;;;33.83;;
9420;SDS011;4749;51.398;5.466;2022-08-19T06:30:28;45.80;;;31.27;;
9420;SDS011;4749;51.398;5.466;2022-08-19T06:32:55;54.83;;;34.65;;
9420;SDS011;4749;51.398;5.466;2022-08-19T06:35:22;47.78;;;32.22;;
9420;SDS011;4749;51.398;5.466;2022-08-19T06:37:49;48.25;;;33.30;;
9420;SDS011;4749;51.398;5.466;2022-08-19T06:40:17;49.20;;;33.65;;
9420;SDS011;4749;51.398;5.466;2022-08-19T06:42:44;50.97;;;33.00;;
9420;SDS011;4749;51.398;5.466;2022-08-19T06:45:20;51.53;;;31.45;;
9420;SDS011;4749;51.398;5.466;2022-08-19T06:48:04;42.60;;;30.60;;
9420;SDS011;4749;51.398;5.466;2022-08-19T06:50:33;49.03;;;32.08;;
9420;SDS011;4749;51.398;5.466;2022-08-19T06:53:04;47.67;;;31.30;;
9420;SDS011;4749;51.398;5.466;2022-08-19T06:55:31;44.25;;;30.23;;
9420;SDS011;4749;51.398;5.466;2022-08-19T06:58:01;37.53;;;27.85;;
9420;SDS011;4749;51.398;5.466;2022-08-19T07:00:30;42.53;;;28.85;;
9420;SDS011;4749;51.398;5.466;2022-08-19T07:02:57;39.95;;;28.02;;
9420;SDS011;4749;51.398;5.466;2022-08-19T07:05:31;41.67;;;28.00;;
9420;SDS011;4749;51.398;5.466;2022-08-19T07:07:59;38.28;;;28.45;;
9420;SDS011;4749;51.398;5.466;2022-08-19T07:10:30;43.90;;;26.63;;
9420;SDS011;4749;51.398;5.466;2022-08-19T07:12:58;37.78;;;26.00;;
9420;SDS011;4749;51.398;5.466;2022-08-19T07:15:26;39.65;;;26.75;;
9420;SDS011;4749;51.398;5.466;2022-08-19T07:17:54;40.20;;;26.05;;
9420;SDS011;4749;51.398;5.466;2022-08-19T07:20:21;33.03;;;23.95;;
9420;SDS011;4749;51.398;5.466;2022-08-19T07:22:54;33.70;;;24.20;;
9420;SDS011;4749;51.398;5.466;2022-08-19T07:25:21;35.38;;;23.65;;
9420;SDS011;4749;51.398;5.466;2022-08-19T07:27:58;32.70;;;23.33;;
9420;SDS011;4749;51.398;5.466;2022-08-19T07:30:27;34.03;;;22.17;;
9420;SDS011;4749;51.398;5.466;2022-08-19T07:32:54;28.15;;;20.70;;
9420;SDS011;4749;51.398;5.466;2022-08-19T07:35:22;30.83;;;21.17;;
9420;SDS011;4749;51.398;5.466;2022-08-19T07:37:50;32.30;;;21.77;;
9420;SDS011;4749;51.398;5.466;2022-08-19T07:40:19;31.00;;;20.08;;
9420;SDS011;4749;51.398;5.466;2022-08-19T07:42:46;28.00;;;20.40;;
9420;SDS011;4749;51.398;5.466;2022-08-19T07:45:13;31.55;;;20.75;;
9420;SDS011;4749;51.398;5.466;2022-08-19T07:47:42;30.98;;;20.55;;
9420;SDS011;4749;51.398;5.466;2022-08-19T07:50:23;27.30;;;18.42;;
9420;SDS011;4749;51.398;5.466;2022-08-19T07:52:51;24.75;;;17.50;;
9420;SDS011;4749;51.398;5.466;2022-08-19T07:55:19;31.63;;;19.75;;
9420;SDS011;4749;51.398;5.466;2022-08-19T07:58:08;26.48;;;17.58;;
9420;SDS011;4749;51.398;5.466;2022-08-19T08:00:39;23.77;;;17.52;;
9420;SDS011;4749;51.398;5.466;2022-08-19T08:03:07;25.13;;;17.80;;
9420;SDS011;4749;51.398;5.466;2022-08-19T08:05:35;24.85;;;17.17;;
9420;SDS011;4749;51.398;5.466;2022-08-19T08:08:30;25.48;;;18.35;;
9420;SDS011;4749;51.398;5.466;2022-08-19T08:10:58;24.00;;;18.25;;
9420;SDS011;4749;51.398;5.466;2022-08-19T08:13:26;25.60;;;18.40;;
9420;SDS011;4749;51.398;5.466;2022-08-19T08:15:54;26.98;;;20.00;;
9420;SDS011;4749;51.398;5.466;2022-08-19T08:18:23;27.92;;;19.60;;
9420;SDS011;4749;51.398;5.466;2022-08-19T08:20:56;27.90;;;20.30;;
9420;SDS011;4749;51.398;5.466;2022-08-19T08:23:24;25.98;;;20.42;;
9420;SDS011;4749;51.398;5.466;2022-08-19T08:25:53;27.58;;;20.58;;
9420;SDS011;4749;51.398;5.466;2022-08-19T08:28:24;26.35;;;21.60;;
9420;SDS011;4749;51.398;5.466;2022-08-19T08:30:55;31.15;;;21.83;;
9420;SDS011;4749;51.398;5.466;2022-08-19T08:33:26;23.77;;;20.70;;
9420;SDS011;4749;51.398;5.466;2022-08-19T08:36:06;24.85;;;21.23;;
9420;SDS011;4749;51.398;5.466;2022-08-19T08:38:35;25.92;;;21.85;;
9420;SDS011;4749;51.398;5.466;2022-08-19T08:43:54;30.55;;;24.25;;
9420;SDS011;4749;51.398;5.466;2022-08-19T08:46:25;28.92;;;23.00;;
9420;SDS011;4749;51.398;5.466;2022-08-19T08:51:37;27.65;;;23.27;;
9420;SDS011;4749;51.398;5.466;2022-08-19T08:54:27;28.92;;;24.48;;
9420;SDS011;4749;51.398;5.466;2022-08-19T08:57:29;27.55;;;22.90;;
9420;SDS011;4749;51.398;5.466;2022-08-19T09:00:15;29.10;;;24.25;;
9420;SDS011;4749;51.398;5.466;2022-08-19T09:02:47;24.33;;;21.83;;
9420;SDS011;4749;51.398;5.466;2022-08-19T09:05:15;25.35;;;21.05;;
9420;SDS011;4749;51.398;5.466;2022-08-19T09:07:57;26.08;;;22.17;;
9420;SDS011;4749;51.398;5.466;2022-08-19T09:10:51;20.40;;;17.35;;
9420;SDS011;4749;51.398;5.466;2022-08-19T09:16:07;18.23;;;16.33;;
9420;SDS011;4749;51.398;5.466;2022-08-19T09:18:54;22.60;;;18.05;;
9420;SDS011;4749;51.398;5.466;2022-08-19T09:21:28;20.98;;;17.73;;
9420;SDS011;4749;51.398;5.466;2022-08-19T09:23:59;21.83;;;17.98;;
9420;SDS011;4749;51.398;5.466;2022-08-19T09:26:28;18.73;;;16.35;;
9420;SDS011;4749;51.398;5.466;2022-08-19T09:29:18;19.25;;;17.17;;
9420;SDS011;4749;51.398;5.466;2022-08-19T09:31:47;22.77;;;18.02;;
9420;SDS011;4749;51.398;5.466;2022-08-19T09:34:16;20.58;;;17.90;;
9420;SDS011;4749;51.398;5.466;2022-08-19T09:36:47;17.17;;;15.48;;
9420;SDS011;4749;51.398;5.466;2022-08-19T09:39:21;18.23;;;14.02;;
9420;SDS011;4749;51.398;5.466;2022-08-19T09:41:48;15.80;;;13.32;;
9420;SDS011;4749;51.398;5.466;2022-08-19T09:44:16;15.85;;;14.23;;
9420;SDS011;4749;51.398;5.466;2022-08-19T09:46:44;18.85;;;14.57;;
9420;SDS011;4749;51.398;5.466;2022-08-19T09:49:14;19.80;;;15.20;;
9420;SDS011;4749;51.398;5.466;2022-08-19T09:51:44;17.60;;;14.20;;
9420;SDS011;4749;51.398;5.466;2022-08-19T09:54:16;19.50;;;14.80;;
9420;SDS011;4749;51.398;5.466;2022-08-19T09:56:50;17.35;;;13.55;;
9420;SDS011;4749;51.398;5.466;2022-08-19T09:59:19;16.88;;;13.52;;
9420;SDS011;4749;51.398;5.466;2022-08-19T10:01:46;16.75;;;12.07;;
9420;SDS011;4749;51.398;5.466;2022-08-19T10:04:14;18.95;;;12.55;;
9420;SDS011;4749;51.398;5.466;2022-08-19T10:06:47;15.18;;;11.88;;
9420;SDS011;4749;51.398;5.466;2022-08-19T10:09:19;17.75;;;11.18;;
9420;SDS011;4749;51.398;5.466;2022-08-19T10:12:00;15.23;;;11.55;;
9420;SDS011;4749;51.398;5.466;2022-08-19T10:14:31;13.20;;;9.80;;
9420;SDS011;4749;51.398;5.466;2022-08-19T10:16:59;13.95;;;10.25;;
9420;SDS011;4749;51.398;5.466;2022-08-19T10:19:42;14.70;;;9.50;;
9420;SDS011;4749;51.398;5.466;2022-08-19T10:22:21;15.45;;;9.98;;
9420;SDS011;4749;51.398;5.466;2022-08-19T10:24:51;13.55;;;8.65;;
9420;SDS011;4749;51.398;5.466;2022-08-19T10:27:18;14.25;;;7.88;;
9420;SDS011;4749;51.398;5.466;2022-08-19T10:29:46;13.38;;;8.75;;
9420;SDS011;4749;51.398;5.466;2022-08-19T10:32:14;11.45;;;8.10;;
9420;SDS011;4749;51.398;5.466;2022-08-19T10:34:42;11.35;;;8.05;;
9420;SDS011;4749;51.398;5.466;2022-08-19T10:37:14;11.93;;;8.43;;
9420;SDS011;4749;51.398;5.466;2022-08-19T10:39:56;12.68;;;8.07;;
9420;SDS011;4749;51.398;5.466;2022-08-19T10:42:23;13.88;;;8.68;;
9420;SDS011;4749;51.398;5.466;2022-08-19T10:44:50;11.77;;;9.02;;
9420;SDS011;4749;51.398;5.466;2022-08-19T10:47:17;11.43;;;8.25;;
9420;SDS011;4749;51.398;5.466;2022-08-19T10:49:54;12.90;;;9.75;;
9420;SDS011;4749;51.398;5.466;2022-08-19T10:52:41;12.52;;;9.48;;
9420;SDS011;4749;51.398;5.466;2022-08-19T10:55:16;15.57;;;9.85;;
9420;SDS011;4749;51.398;5.466;2022-08-19T10:58:12;13.55;;;9.95;;
9420;SDS011;4749;51.398;5.466;2022-08-19T11:00:42;14.43;;;10.55;;
9420;SDS011;4749;51.398;5.466;2022-08-19T11:03:10;12.68;;;9.90;;
9420;SDS011;4749;51.398;5.466;2022-08-19T11:05:37;15.38;;;10.25;;
9420;SDS011;4749;51.398;5.466;2022-08-19T11:08:06;16.65;;;11.48;;
9420;SDS011;4749;51.398;5.466;2022-08-19T11:10:49;15.52;;;11.18;;
9420;SDS011;4749;51.398;5.466;2022-08-19T11:13:24;13.75;;;10.38;;
9420;SDS011;4749;51.398;5.466;2022-08-19T11:15:58;15.68;;;11.43;;
9420;SDS011;4749;51.398;5.466;2022-08-19T11:18:37;17.48;;;12.07;;
9420;SDS011;4749;51.398;5.466;2022-08-19T11:21:20;17.15;;;13.38;;
9420;SDS011;4749;51.398;5.466;2022-08-19T11:23:59;14.57;;;11.20;;
9420;SDS011;4749;51.398;5.466;2022-08-19T11:26:30;17.27;;;11.95;;
9420;SDS011;4749;51.398;5.466;2022-08-19T11:28:58;16.13;;;14.00;;
9420;SDS011;4749;51.398;5.466;2022-08-19T11:31:28;16.45;;;12.75;;
9420;SDS011;4749;51.398;5.466;2022-08-19T11:33:58;19.85;;;13.82;;
9420;SDS011;4749;51.398;5.466;2022-08-19T11:36:27;18.08;;;14.38;;
9420;SDS011;4749;51.398;5.466;2022-08-19T11:38:57;19.45;;;14.50;;
9420;SDS011;4749;51.398;5.466;2022-08-19T11:41:25;16.58;;;13.82;;
9420;SDS011;4749;51.398;5.466;2022-08-19T11:43:53;20.05;;;15.30;;
9420;SDS011;4749;51.398;5.466;2022-08-19T11:46:21;21.17;;;16.27;;
9420;SDS011;4749;51.398;5.466;2022-08-19T11:48:50;18.23;;;15.00;;
9420;SDS011;4749;51.398;5.466;2022-08-19T11:51:19;21.67;;;15.10;;
9420;SDS011;4749;51.398;5.466;2022-08-19T11:53:51;18.38;;;15.13;;
9420;SDS011;4749;51.398;5.466;2022-08-19T11:56:23;21.13;;;15.77;;
9420;SDS011;4749;51.398;5.466;2022-08-19T11:58:52;16.73;;;13.90;;
9420;SDS011;4749;51.398;5.466;2022-08-19T12:01:21;16.90;;;14.80;;
9420;SDS011;4749;51.398;5.466;2022-08-19T12:03:50;16.98;;;14.07;;
9420;SDS011;4749;51.398;5.466;2022-08-19T12:06:21;18.70;;;14.20;;
9420;SDS011;4749;51.398;5.466;2022-08-19T12:08:58;19.63;;;15.57;;
9420;SDS011;4749;51.398;5.466;2022-08-19T12:11:31;17.02;;;14.27;;
9420;SDS011;4749;51.398;5.466;2022-08-19T12:14:00;15.55;;;13.25;;
9420;SDS011;4749;51.398;5.466;2022-08-19T12:16:28;19.13;;;15.02;;
9420;SDS011;4749;51.398;5.466;2022-08-19T12:18:58;19.83;;;16.30;;
9420;SDS011;4749;51.398;5.466;2022-08-19T12:21:30;21.10;;;15.60;;
9420;SDS011;4749;51.398;5.466;2022-08-19T12:24:01;20.45;;;16.38;;
9420;SDS011;4749;51.398;5.466;2022-08-19T12:26:31;19.27;;;15.68;;
9420;SDS011;4749;51.398;5.466;2022-08-19T12:29:04;21.92;;;16.33;;
9420;SDS011;4749;51.398;5.466;2022-08-19T12:31:31;17.75;;;15.10;;
9420;SDS011;4749;51.398;5.466;2022-08-19T12:33:59;20.35;;;15.32;;
9420;SDS011;4749;51.398;5.466;2022-08-19T12:36:27;17.92;;;15.25;;
9420;SDS011;4749;51.398;5.466;2022-08-19T12:38:54;17.83;;;14.35;;
9420;SDS011;4749;51.398;5.466;2022-08-19T12:41:25;18.40;;;13.90;;
9420;SDS011;4749;51.398;5.466;2022-08-19T12:43:52;16.00;;;12.82;;
9420;SDS011;4749;51.398;5.466;2022-08-19T12:46:20;16.08;;;12.15;;
9420;SDS011;4749;51.398;5.466;2022-08-19T12:48:51;16.38;;;12.82;;
9420;SDS011;4749;51.398;5.466;2022-08-19T12:51:21;15.13;;;13.02;;
9420;SDS011;4749;51.398;5.466;2022-08-19T12:53:48;15.93;;;12.70;;
9420;SDS011;4749;51.398;5.466;2022-08-19T12:56:16;12.77;;;10.95;;
9420;SDS011;4749;51.398;5.466;2022-08-19T12:58:48;13.40;;;9.90;;
9420;SDS011;4749;51.398;5.466;2022-08-19T13:01:18;11.63;;;8.85;;
9420;SDS011;4749;51.398;5.466;2022-08-19T13:03:48;9.88;;;7.82;;
9420;SDS011;4749;51.398;5.466;2022-08-19T13:06:16;9.25;;;8.18;;
9420;SDS011;4749;51.398;5.466;2022-08-19T13:08:45;10.30;;;8.63;;
9420;SDS011;4749;51.398;5.466;2022-08-19T13:11:14;8.88;;;7.85;;
9420;SDS011;4749;51.398;5.466;2022-08-19T13:13:47;10.85;;;8.80;;
9420;SDS011;4749;51.398;5.466;2022-08-19T13:16:17;9.60;;;8.02;;
9420;SDS011;4749;51.398;5.466;2022-08-19T13:18:46;8.23;;;7.03;;
9420;SDS011;4749;51.398;5.466;2022-08-19T13:21:14;9.55;;;7.30;;
9420;SDS011;4749;51.398;5.466;2022-08-19T13:23:41;9.13;;;7.82;;
9420;SDS011;4749;51.398;5.466;2022-08-19T13:26:09;10.45;;;8.32;;
9420;SDS011;4749;51.398;5.466;2022-08-19T13:28:40;12.27;;;8.45;;
9420;SDS011;4749;51.398;5.466;2022-08-19T13:31:29;9.45;;;6.60;;
9420;SDS011;4749;51.398;5.466;2022-08-19T13:34:25;11.75;;;8.73;;
9420;SDS011;4749;51.398;5.466;2022-08-19T13:36:59;11.00;;;8.30;;
9420;SDS011;4749;51.398;5.466;2022-08-19T13:39:30;9.90;;;7.82;;
9420;SDS011;4749;51.398;5.466;2022-08-19T13:41:59;8.93;;;7.15;;
9420;SDS011;4749;51.398;5.466;2022-08-19T13:44:28;9.23;;;7.25;;
9420;SDS011;4749;51.398;5.466;2022-08-19T13:47:02;7.70;;;6.63;;
9420;SDS011;4749;51.398;5.466;2022-08-19T13:49:34;11.50;;;8.30;;
9420;SDS011;4749;51.398;5.466;2022-08-19T13:52:03;8.88;;;7.10;;
9420;SDS011;4749;51.398;5.466;2022-08-19T13:54:31;7.72;;;6.95;;
9420;SDS011;4749;51.398;5.466;2022-08-19T13:56:58;8.57;;;6.43;;
9420;SDS011;4749;51.398;5.466;2022-08-19T13:59:26;8.50;;;6.38;;
9420;SDS011;4749;51.398;5.466;2022-08-19T14:01:56;7.25;;;5.63;;
9420;SDS011;4749;51.398;5.466;2022-08-19T14:04:25;6.22;;;5.35;;
9420;SDS011;4749;51.398;5.466;2022-08-19T14:06:53;8.63;;;5.65;;
9420;SDS011;4749;51.398;5.466;2022-08-19T14:09:21;7.28;;;5.28;;
9420;SDS011;4749;51.398;5.466;2022-08-19T14:11:48;8.10;;;5.43;;
9420;SDS011;4749;51.398;5.466;2022-08-19T14:14:17;8.75;;;5.68;;
9420;SDS011;4749;51.398;5.466;2022-08-19T14:16:44;6.85;;;4.82;;
9420;SDS011;4749;51.398;5.466;2022-08-19T14:19:11;5.28;;;4.43;;
9420;SDS011;4749;51.398;5.466;2022-08-19T14:21:38;9.25;;;6.03;;
9420;SDS011;4749;51.398;5.466;2022-08-19T14:24:07;8.38;;;5.72;;
9420;SDS011;4749;51.398;5.466;2022-08-19T14:26:34;6.35;;;5.53;;
9420;SDS011;4749;51.398;5.466;2022-08-19T14:29:02;6.10;;;4.93;;
9420;SDS011;4749;51.398;5.466;2022-08-19T14:31:29;6.22;;;5.13;;
9420;SDS011;4749;51.398;5.466;2022-08-19T14:33:56;7.30;;;4.43;;
9420;SDS011;4749;51.398;5.466;2022-08-19T14:36:23;6.25;;;4.97;;
9420;SDS011;4749;51.398;5.466;2022-08-19T14:38:50;5.15;;;3.97;;
9420;SDS011;4749;51.398;5.466;2022-08-19T14:41:19;4.32;;;3.42;;
9420;SDS011;4749;51.398;5.466;2022-08-19T14:43:49;5.15;;;4.07;;
9420;SDS011;4749;51.398;5.466;2022-08-19T14:46:19;4.05;;;3.65;;
9420;SDS011;4749;51.398;5.466;2022-08-19T14:48:50;5.57;;;4.10;;
9420;SDS011;4749;51.398;5.466;2022-08-19T14:51:19;5.53;;;4.18;;
9420;SDS011;4749;51.398;5.466;2022-08-19T14:53:50;6.45;;;4.68;;
9420;SDS011;4749;51.398;5.466;2022-08-19T14:56:19;7.25;;;5.20;;
9420;SDS011;4749;51.398;5.466;2022-08-19T14:58:54;5.88;;;4.15;;
9420;SDS011;4749;51.398;5.466;2022-08-19T15:01:23;4.72;;;4.32;;
9420;SDS011;4749;51.398;5.466;2022-08-19T15:03:50;5.20;;;4.22;;
9420;SDS011;4749;51.398;5.466;2022-08-19T15:06:21;5.63;;;4.43;;
9420;SDS011;4749;51.398;5.466;2022-08-19T15:08:50;5.22;;;4.55;;
9420;SDS011;4749;51.398;5.466;2022-08-19T15:11:18;4.60;;;4.07;;
9420;SDS011;4749;51.398;5.466;2022-08-19T15:13:49;6.53;;;4.60;;
9420;SDS011;4749;51.398;5.466;2022-08-19T15:16:17;7.18;;;5.07;;
9420;SDS011;4749;51.398;5.466;2022-08-19T15:18:46;5.85;;;4.57;;
9420;SDS011;4749;51.398;5.466;2022-08-19T15:21:18;6.85;;;5.30;;
9420;SDS011;4749;51.398;5.466;2022-08-19T15:23:52;5.55;;;4.95;;
9420;SDS011;4749;51.398;5.466;2022-08-19T15:26:21;6.28;;;5.10;;